sensor_id;sensor_type;location;lat;lon;timestamp;temperature;humidity
20442;DHT22;10380;52.102;20.614;2023-03-19T00:01:03;7.60;99.80
20442;DHT22;10380;52.102;20.614;2023-03-19T00:03:31;7.50;99.90
20442;DHT22;10380;52.102;20.614;2023-03-19T00:05:58;7.50;99.80
20442;DHT22;10380;52.102;20.614;2023-03-19T00:08:26;7.50;99.80
20442;DHT22;10380;52.102;20.614;2023-03-19T00:10:56;7.50;99.90
20442;DHT22;10380;52.102;20.614;2023-03-19T00:13:23;7.50;99.90
20442;DHT22;10380;52.102;20.614;2023-03-19T00:16:06;7.50;99.90
20442;DHT22;10380;52.102;20.614;2023-03-19T00:18:37;7.40;99.90
20442;DHT22;10380;52.102;20.614;2023-03-19T00:21:16;7.40;99.90
20442;DHT22;10380;52.102;20.614;2023-03-19T00:23:44;7.40;99.90
20442;DHT22;10380;52.102;20.614;2023-03-19T00:26:15;7.40;99.90
20442;DHT22;10380;52.102;20.614;2023-03-19T00:28:47;7.40;99.90
20442;DHT22;10380;52.102;20.614;2023-03-19T00:31:15;7.40;99.90
20442;DHT22;10380;52.102;20.614;2023-03-19T00:33:46;7.40;99.90
20442;DHT22;10380;52.102;20.614;2023-03-19T00:36:16;7.40;99.90
20442;DHT22;10380;52.102;20.614;2023-03-19T00:38:45;7.40;99.90
20442;DHT22;10380;52.102;20.614;2023-03-19T00:41:13;7.30;99.90
20442;DHT22;10380;52.102;20.614;2023-03-19T00:43:52;7.40;99.90
20442;DHT22;10380;52.102;20.614;2023-03-19T00:46:19;7.30;99.90
20442;DHT22;10380;52.102;20.614;2023-03-19T00:48:49;7.30;99.90
20442;DHT22;10380;52.102;20.614;2023-03-19T00:51:27;7.30;99.90
20442;DHT22;10380;52.102;20.614;2023-03-19T00:53:56;7.30;99.90
20442;DHT22;10380;52.102;20.614;2023-03-19T00:56:23;7.30;99.90
20442;DHT22;10380;52.102;20.614;2023-03-19T00:58:52;7.20;99.90
20442;DHT22;10380;52.102;20.614;2023-03-19T01:01:26;7.20;99.90
20442;DHT22;10380;52.102;20.614;2023-03-19T01:03:56;7.20;99.90
20442;DHT22;10380;52.102;20.614;2023-03-19T01:06:25;7.20;99.90
20442;DHT22;10380;52.102;20.614;2023-03-19T01:08:58;7.10;99.90
20442;DHT22;10380;52.102;20.614;2023-03-19T01:11:28;7.10;99.90
20442;DHT22;10380;52.102;20.614;2023-03-19T01:13:55;7.10;99.90
20442;DHT22;10380;52.102;20.614;2023-03-19T01:16:25;7.10;99.90
20442;DHT22;10380;52.102;20.614;2023-03-19T01:18:52;7.10;99.90
20442;DHT22;10380;52.102;20.614;2023-03-19T01:21:25;7.10;99.90
20442;DHT22;10380;52.102;20.614;2023-03-19T01:23:53;7.10;99.90
20442;DHT22;10380;52.102;20.614;2023-03-19T01:26:25;7.00;99.90
20442;DHT22;10380;52.102;20.614;2023-03-19T01:28:56;7.00;99.90
20442;DHT22;10380;52.102;20.614;2023-03-19T01:31:26;7.00;99.90
20442;DHT22;10380;52.102;20.614;2023-03-19T01:33:56;7.00;99.90
20442;DHT22;10380;52.102;20.614;2023-03-19T01:36:26;6.90;99.90
20442;DHT22;10380;52.102;20.614;2023-03-19T01:38:55;6.90;99.90
20442;DHT22;10380;52.102;20.614;2023-03-19T01:41:33;6.90;99.90
20442;DHT22;10380;52.102;20.614;2023-03-19T01:44:02;6.90;99.90
20442;DHT22;10380;52.102;20.614;2023-03-19T01:46:35;7.00;99.90
20442;DHT22;10380;52.102;20.614;2023-03-19T01:49:06;7.00;99.90
20442;DHT22;10380;52.102;20.614;2023-03-19T01:51:40;6.90;99.90
20442;DHT22;10380;52.102;20.614;2023-03-19T01:54:14;6.90;99.90
20442;DHT22;10380;52.102;20.614;2023-03-19T01:56:45;6.90;99.90
20442;DHT22;10380;52.102;20.614;2023-03-19T01:59:17;6.90;99.90
20442;DHT22;10380;52.102;20.614;2023-03-19T02:04:51;6.80;99.90
20442;DHT22;10380;52.102;20.614;2023-03-19T02:07:19;6.80;99.90
20442;DHT22;10380;52.102;20.614;2023-03-19T02:09:50;6.70;99.90
20442;DHT22;10380;52.102;20.614;2023-03-19T02:12:17;6.70;99.90
20442;DHT22;10380;52.102;20.614;2023-03-19T02:14:48;6.60;99.90
20442;DHT22;10380;52.102;20.614;2023-03-19T02:17:21;6.60;99.90
20442;DHT22;10380;52.102;20.614;2023-03-19T02:23:14;6.50;99.90
20442;DHT22;10380;52.102;20.614;2023-03-19T02:26:16;6.50;99.90
20442;DHT22;10380;52.102;20.614;2023-03-19T02:28:46;6.40;99.90
20442;DHT22;10380;52.102;20.614;2023-03-19T02:31:14;6.40;99.90
20442;DHT22;10380;52.102;20.614;2023-03-19T02:34:03;6.30;99.90
20442;DHT22;10380;52.102;20.614;2023-03-19T02:36:43;6.30;99.90
20442;DHT22;10380;52.102;20.614;2023-03-19T02:39:20;6.30;99.90
20442;DHT22;10380;52.102;20.614;2023-03-19T02:41:50;6.20;99.90
20442;DHT22;10380;52.102;20.614;2023-03-19T02:44:20;6.20;99.90
20442;DHT22;10380;52.102;20.614;2023-03-19T02:46:51;6.20;99.90
20442;DHT22;10380;52.102;20.614;2023-03-19T02:49:18;6.20;99.90
20442;DHT22;10380;52.102;20.614;2023-03-19T02:51:49;6.10;99.90
20442;DHT22;10380;52.102;20.614;2023-03-19T02:54:17;6.10;99.90
20442;DHT22;10380;52.102;20.614;2023-03-19T02:56:47;6.10;99.90
20442;DHT22;10380;52.102;20.614;2023-03-19T02:59:16;6.10;99.90
20442;DHT22;10380;52.102;20.614;2023-03-19T03:01:46;6.00;99.90
20442;DHT22;10380;52.102;20.614;2023-03-19T03:04:15;6.00;99.90
20442;DHT22;10380;52.102;20.614;2023-03-19T03:06:45;6.10;99.90
20442;DHT22;10380;52.102;20.614;2023-03-19T03:09:16;6.10;99.90
20442;DHT22;10380;52.102;20.614;2023-03-19T03:11:43;6.10;99.90
20442;DHT22;10380;52.102;20.614;2023-03-19T03:14:11;6.10;99.90
20442;DHT22;10380;52.102;20.614;2023-03-19T03:16:43;6.10;99.90
20442;DHT22;10380;52.102;20.614;2023-03-19T03:19:12;6.20;99.90
20442;DHT22;10380;52.102;20.614;2023-03-19T03:21:42;6.20;99.90
20442;DHT22;10380;52.102;20.614;2023-03-19T03:24:21;6.30;99.90
20442;DHT22;10380;52.102;20.614;2023-03-19T03:26:48;6.30;99.90
20442;DHT22;10380;52.102;20.614;2023-03-19T03:29:17;6.30;99.90
20442;DHT22;10380;52.102;20.614;2023-03-19T03:31:46;6.30;99.90
20442;DHT22;10380;52.102;20.614;2023-03-19T03:34:14;6.30;99.90
20442;DHT22;10380;52.102;20.614;2023-03-19T03:36:43;6.30;99.90
20442;DHT22;10380;52.102;20.614;2023-03-19T03:39:10;6.30;99.90
20442;DHT22;10380;52.102;20.614;2023-03-19T03:41:37;6.30;99.90
20442;DHT22;10380;52.102;20.614;2023-03-19T03:44:06;6.20;99.90
20442;DHT22;10380;52.102;20.614;2023-03-19T03:46:37;6.20;99.90
20442;DHT22;10380;52.102;20.614;2023-03-19T03:49:07;6.20;99.90
20442;DHT22;10380;52.102;20.614;2023-03-19T03:51:37;6.20;99.90
20442;DHT22;10380;52.102;20.614;2023-03-19T03:54:07;6.20;99.90
20442;DHT22;10380;52.102;20.614;2023-03-19T03:56:37;6.20;99.90
20442;DHT22;10380;52.102;20.614;2023-03-19T03:59:04;6.20;99.90
20442;DHT22;10380;52.102;20.614;2023-03-19T04:01:32;6.20;99.90
20442;DHT22;10380;52.102;20.614;2023-03-19T04:04:08;6.20;99.90
20442;DHT22;10380;52.102;20.614;2023-03-19T04:06:46;6.20;99.90
20442;DHT22;10380;52.102;20.614;2023-03-19T04:09:17;6.20;99.90
20442;DHT22;10380;52.102;20.614;2023-03-19T04:11:47;6.10;99.90
20442;DHT22;10380;52.102;20.614;2023-03-19T04:14:18;6.10;99.90
20442;DHT22;10380;52.102;20.614;2023-03-19T04:16:48;6.10;99.90
20442;DHT22;10380;52.102;20.614;2023-03-19T04:19:18;6.10;99.90
20442;DHT22;10380;52.102;20.614;2023-03-19T04:21:46;6.10;99.90
20442;DHT22;10380;52.102;20.614;2023-03-19T04:24:15;6.10;99.90
20442;DHT22;10380;52.102;20.614;2023-03-19T04:26:59;6.10;99.90
20442;DHT22;10380;52.102;20.614;2023-03-19T04:29:26;6.10;99.90
20442;DHT22;10380;52.102;20.614;2023-03-19T04:31:53;6.00;99.90
20442;DHT22;10380;52.102;20.614;2023-03-19T04:34:21;6.00;99.90
20442;DHT22;10380;52.102;20.614;2023-03-19T04:36:49;6.00;99.90
20442;DHT22;10380;52.102;20.614;2023-03-19T04:39:22;5.90;99.90
20442;DHT22;10380;52.102;20.614;2023-03-19T04:41:50;5.90;99.90
20442;DHT22;10380;52.102;20.614;2023-03-19T04:44:26;5.90;99.90
20442;DHT22;10380;52.102;20.614;2023-03-19T04:46:59;5.90;99.90
20442;DHT22;10380;52.102;20.614;2023-03-19T04:49:33;5.80;99.90
20442;DHT22;10380;52.102;20.614;2023-03-19T04:52:02;5.80;99.90
20442;DHT22;10380;52.102;20.614;2023-03-19T04:54:29;5.80;99.90
20442;DHT22;10380;52.102;20.614;2023-03-19T04:56:57;5.80;99.90
20442;DHT22;10380;52.102;20.614;2023-03-19T04:59:27;5.80;99.90
20442;DHT22;10380;52.102;20.614;2023-03-19T05:01:54;5.90;99.90
20442;DHT22;10380;52.102;20.614;2023-03-19T05:04:21;5.90;99.90
20442;DHT22;10380;52.102;20.614;2023-03-19T05:06:52;5.90;99.90
20442;DHT22;10380;52.102;20.614;2023-03-19T05:09:20;5.90;99.90
20442;DHT22;10380;52.102;20.614;2023-03-19T05:11:53;5.90;99.90
20442;DHT22;10380;52.102;20.614;2023-03-19T05:14:23;6.00;99.90
20442;DHT22;10380;52.102;20.614;2023-03-19T05:16:51;6.00;99.90
20442;DHT22;10380;52.102;20.614;2023-03-19T05:19:18;6.10;99.90
20442;DHT22;10380;52.102;20.614;2023-03-19T05:21:45;6.10;99.90
20442;DHT22;10380;52.102;20.614;2023-03-19T05:24:25;6.20;99.90
20442;DHT22;10380;52.102;20.614;2023-03-19T05:26:52;6.20;99.90
20442;DHT22;10380;52.102;20.614;2023-03-19T05:29:20;6.30;99.90
20442;DHT22;10380;52.102;20.614;2023-03-19T05:31:49;6.30;99.90
20442;DHT22;10380;52.102;20.614;2023-03-19T05:34:17;6.40;99.90
20442;DHT22;10380;52.102;20.614;2023-03-19T05:36:46;6.50;99.90
20442;DHT22;10380;52.102;20.614;2023-03-19T05:39:14;6.50;99.90
20442;DHT22;10380;52.102;20.614;2023-03-19T05:41:44;6.60;99.90
20442;DHT22;10380;52.102;20.614;2023-03-19T05:44:12;6.70;99.90
20442;DHT22;10380;52.102;20.614;2023-03-19T05:46:39;6.70;99.90
20442;DHT22;10380;52.102;20.614;2023-03-19T05:49:10;6.80;99.90
20442;DHT22;10380;52.102;20.614;2023-03-19T05:51:37;6.90;99.90
20442;DHT22;10380;52.102;20.614;2023-03-19T05:54:06;7.00;99.90
20442;DHT22;10380;52.102;20.614;2023-03-19T05:56:36;7.10;99.90
20442;DHT22;10380;52.102;20.614;2023-03-19T05:59:10;7.20;99.90
20442;DHT22;10380;52.102;20.614;2023-03-19T06:01:37;7.30;99.90
20442;DHT22;10380;52.102;20.614;2023-03-19T06:04:05;7.30;99.90
20442;DHT22;10380;52.102;20.614;2023-03-19T06:06:38;7.40;99.90
20442;DHT22;10380;52.102;20.614;2023-03-19T06:09:08;7.50;99.90
20442;DHT22;10380;52.102;20.614;2023-03-19T06:12:02;7.60;99.90
20442;DHT22;10380;52.102;20.614;2023-03-19T06:14:29;7.60;99.90
20442;DHT22;10380;52.102;20.614;2023-03-19T06:17:03;7.70;99.90
20442;DHT22;10380;52.102;20.614;2023-03-19T06:19:32;7.80;99.90
20442;DHT22;10380;52.102;20.614;2023-03-19T06:22:02;7.80;99.90
20442;DHT22;10380;52.102;20.614;2023-03-19T06:24:29;8.00;99.90
20442;DHT22;10380;52.102;20.614;2023-03-19T06:27:00;8.10;99.90
20442;DHT22;10380;52.102;20.614;2023-03-19T06:29:30;8.20;99.90
20442;DHT22;10380;52.102;20.614;2023-03-19T06:31:59;8.30;99.90
20442;DHT22;10380;52.102;20.614;2023-03-19T06:34:32;8.50;99.90
20442;DHT22;10380;52.102;20.614;2023-03-19T06:37:06;8.60;99.90
20442;DHT22;10380;52.102;20.614;2023-03-19T06:39:34;8.80;99.90
20442;DHT22;10380;52.102;20.614;2023-03-19T06:42:06;8.90;99.90
20442;DHT22;10380;52.102;20.614;2023-03-19T06:44:33;9.00;99.90
20442;DHT22;10380;52.102;20.614;2023-03-19T06:47:00;9.10;99.90
20442;DHT22;10380;52.102;20.614;2023-03-19T06:49:27;9.20;99.90
20442;DHT22;10380;52.102;20.614;2023-03-19T06:51:56;9.30;99.90
20442;DHT22;10380;52.102;20.614;2023-03-19T06:54:25;9.30;99.90
20442;DHT22;10380;52.102;20.614;2023-03-19T06:56:58;9.40;99.90
20442;DHT22;10380;52.102;20.614;2023-03-19T06:59:29;9.40;99.90
20442;DHT22;10380;52.102;20.614;2023-03-19T07:01:56;9.40;99.90
20442;DHT22;10380;52.102;20.614;2023-03-19T07:04:24;9.40;99.90
20442;DHT22;10380;52.102;20.614;2023-03-19T07:06:54;9.40;99.90
20442;DHT22;10380;52.102;20.614;2023-03-19T07:09:21;9.40;99.90
20442;DHT22;10380;52.102;20.614;2023-03-19T07:11:51;9.50;99.90
20442;DHT22;10380;52.102;20.614;2023-03-19T07:14:42;9.50;99.90
20442;DHT22;10380;52.102;20.614;2023-03-19T07:17:12;9.60;99.90
20442;DHT22;10380;52.102;20.614;2023-03-19T07:19:38;9.70;99.90
20442;DHT22;10380;52.102;20.614;2023-03-19T07:22:08;9.80;99.90
20442;DHT22;10380;52.102;20.614;2023-03-19T07:24:37;9.90;99.90
20442;DHT22;10380;52.102;20.614;2023-03-19T07:27:12;10.00;99.90
20442;DHT22;10380;52.102;20.614;2023-03-19T07:29:41;10.10;99.90
20442;DHT22;10380;52.102;20.614;2023-03-19T07:32:10;10.20;99.90
20442;DHT22;10380;52.102;20.614;2023-03-19T07:34:39;10.30;99.90
20442;DHT22;10380;52.102;20.614;2023-03-19T07:37:09;10.40;99.90
20442;DHT22;10380;52.102;20.614;2023-03-19T07:39:37;10.50;99.90
20442;DHT22;10380;52.102;20.614;2023-03-19T07:42:06;10.60;99.90
20442;DHT22;10380;52.102;20.614;2023-03-19T07:44:33;10.80;99.90
20442;DHT22;10380;52.102;20.614;2023-03-19T07:47:03;10.80;99.90
20442;DHT22;10380;52.102;20.614;2023-03-19T07:49:35;10.90;99.90
20442;DHT22;10380;52.102;20.614;2023-03-19T07:52:03;11.10;99.90
20442;DHT22;10380;52.102;20.614;2023-03-19T07:54:31;11.20;99.90
20442;DHT22;10380;52.102;20.614;2023-03-19T07:56:58;11.30;99.90
20442;DHT22;10380;52.102;20.614;2023-03-19T07:59:26;11.40;99.90
20442;DHT22;10380;52.102;20.614;2023-03-19T08:01:53;11.40;99.90
20442;DHT22;10380;52.102;20.614;2023-03-19T08:04:20;11.50;99.90
20442;DHT22;10380;52.102;20.614;2023-03-19T08:06:47;11.60;99.90
20442;DHT22;10380;52.102;20.614;2023-03-19T08:09:15;11.70;99.90
20442;DHT22;10380;52.102;20.614;2023-03-19T08:11:42;11.80;99.90
20442;DHT22;10380;52.102;20.614;2023-03-19T08:14:12;11.90;99.90
20442;DHT22;10380;52.102;20.614;2023-03-19T08:16:40;11.90;99.90
20442;DHT22;10380;52.102;20.614;2023-03-19T08:19:08;12.00;99.90
20442;DHT22;10380;52.102;20.614;2023-03-19T08:21:35;12.00;99.90
20442;DHT22;10380;52.102;20.614;2023-03-19T08:24:03;12.00;99.90
20442;DHT22;10380;52.102;20.614;2023-03-19T08:26:30;12.00;99.90
20442;DHT22;10380;52.102;20.614;2023-03-19T08:28:59;12.00;99.90
20442;DHT22;10380;52.102;20.614;2023-03-19T08:31:26;12.00;99.90
20442;DHT22;10380;52.102;20.614;2023-03-19T08:33:55;12.10;99.90
20442;DHT22;10380;52.102;20.614;2023-03-19T08:36:25;12.20;99.90
20442;DHT22;10380;52.102;20.614;2023-03-19T08:38:53;12.30;99.90
20442;DHT22;10380;52.102;20.614;2023-03-19T08:41:21;12.40;99.90
20442;DHT22;10380;52.102;20.614;2023-03-19T08:43:48;12.50;99.90
20442;DHT22;10380;52.102;20.614;2023-03-19T08:46:15;12.60;99.90
20442;DHT22;10380;52.102;20.614;2023-03-19T08:48:43;12.70;99.90
20442;DHT22;10380;52.102;20.614;2023-03-19T08:51:10;12.80;99.90
20442;DHT22;10380;52.102;20.614;2023-03-19T08:53:37;13.00;99.90
20442;DHT22;10380;52.102;20.614;2023-03-19T08:56:05;13.10;99.90
20442;DHT22;10380;52.102;20.614;2023-03-19T08:58:33;13.20;99.90
20442;DHT22;10380;52.102;20.614;2023-03-19T09:01:09;13.30;99.90
20442;DHT22;10380;52.102;20.614;2023-03-19T09:03:37;13.40;99.90
20442;DHT22;10380;52.102;20.614;2023-03-19T09:06:07;13.40;99.90
20442;DHT22;10380;52.102;20.614;2023-03-19T09:08:35;13.40;99.90
20442;DHT22;10380;52.102;20.614;2023-03-19T09:11:04;13.40;99.90
20442;DHT22;10380;52.102;20.614;2023-03-19T09:13:31;13.50;99.90
20442;DHT22;10380;52.102;20.614;2023-03-19T09:15:58;13.60;99.90
20442;DHT22;10380;52.102;20.614;2023-03-19T09:18:25;13.60;99.90
20442;DHT22;10380;52.102;20.614;2023-03-19T09:20:53;13.70;99.90
20442;DHT22;10380;52.102;20.614;2023-03-19T09:23:20;13.70;99.90
20442;DHT22;10380;52.102;20.614;2023-03-19T09:25:48;13.80;99.90
20442;DHT22;10380;52.102;20.614;2023-03-19T09:28:15;13.80;99.90
20442;DHT22;10380;52.102;20.614;2023-03-19T09:30:45;13.80;99.90
20442;DHT22;10380;52.102;20.614;2023-03-19T09:33:12;13.90;99.90
20442;DHT22;10380;52.102;20.614;2023-03-19T09:35:39;13.90;99.90
20442;DHT22;10380;52.102;20.614;2023-03-19T09:38:06;13.90;99.90
20442;DHT22;10380;52.102;20.614;2023-03-19T09:40:37;13.90;99.90
20442;DHT22;10380;52.102;20.614;2023-03-19T09:45:52;14.10;99.90
20442;DHT22;10380;52.102;20.614;2023-03-19T09:48:42;14.20;99.80
20442;DHT22;10380;52.102;20.614;2023-03-19T09:51:19;14.20;99.50
20442;DHT22;10380;52.102;20.614;2023-03-19T09:53:55;14.30;99.70
20442;DHT22;10380;52.102;20.614;2023-03-19T09:56:23;14.40;99.90
20442;DHT22;10380;52.102;20.614;2023-03-19T09:58:51;14.40;99.50
20442;DHT22;10380;52.102;20.614;2023-03-19T10:01:24;14.50;99.30
20442;DHT22;10380;52.102;20.614;2023-03-19T10:10:41;14.60;99.10
20442;DHT22;10380;52.102;20.614;2023-03-19T10:15:51;14.70;98.80
20442;DHT22;10380;52.102;20.614;2023-03-19T10:18:36;14.70;98.90
20442;DHT22;10380;52.102;20.614;2023-03-19T10:21:36;14.90;98.70
20442;DHT22;10380;52.102;20.614;2023-03-19T10:24:28;15.00;98.60
20442;DHT22;10380;52.102;20.614;2023-03-19T10:27:01;15.10;98.50
20442;DHT22;10380;52.102;20.614;2023-03-19T10:29:32;15.20;98.20
20442;DHT22;10380;52.102;20.614;2023-03-19T10:35:42;15.30;97.80
20442;DHT22;10380;52.102;20.614;2023-03-19T10:38:23;15.50;98.10
20442;DHT22;10380;52.102;20.614;2023-03-19T10:43:32;15.60;97.70
20442;DHT22;10380;52.102;20.614;2023-03-19T10:46:01;15.60;97.50
20442;DHT22;10380;52.102;20.614;2023-03-19T10:48:30;15.50;97.80
20442;DHT22;10380;52.102;20.614;2023-03-19T10:51:00;15.40;97.90
20442;DHT22;10380;52.102;20.614;2023-03-19T10:53:39;15.40;97.90
20442;DHT22;10380;52.102;20.614;2023-03-19T10:56:28;15.60;97.70
20442;DHT22;10380;52.102;20.614;2023-03-19T10:59:18;15.70;97.70
20442;DHT22;10380;52.102;20.614;2023-03-19T11:01:48;15.80;97.50
20442;DHT22;10380;52.102;20.614;2023-03-19T11:04:25;15.90;97.40
20442;DHT22;10380;52.102;20.614;2023-03-19T11:07:01;16.00;96.90
20442;DHT22;10380;52.102;20.614;2023-03-19T11:09:44;16.10;96.60
20442;DHT22;10380;52.102;20.614;2023-03-19T11:12:26;16.10;96.70
20442;DHT22;10380;52.102;20.614;2023-03-19T11:14:59;16.10;96.50
20442;DHT22;10380;52.102;20.614;2023-03-19T11:17:39;16.10;96.30
20442;DHT22;10380;52.102;20.614;2023-03-19T11:20:21;16.20;96.20
20442;DHT22;10380;52.102;20.614;2023-03-19T11:22:51;16.20;95.80
20442;DHT22;10380;52.102;20.614;2023-03-19T11:25:54;16.20;95.80
20442;DHT22;10380;52.102;20.614;2023-03-19T11:28:19;16.10;95.80
20442;DHT22;10380;52.102;20.614;2023-03-19T11:36:29;16.30;95.40
20442;DHT22;10380;52.102;20.614;2023-03-19T11:42:23;16.60;94.90
20442;DHT22;10380;52.102;20.614;2023-03-19T11:48:02;16.90;94.90
20442;DHT22;10380;52.102;20.614;2023-03-19T11:50:59;17.00;93.90
20442;DHT22;10380;52.102;20.614;2023-03-19T11:53:37;17.30;94.30
20442;DHT22;10380;52.102;20.614;2023-03-19T11:56:15;17.70;94.10
20442;DHT22;10380;52.102;20.614;2023-03-19T11:58:58;18.10;93.30
20442;DHT22;10380;52.102;20.614;2023-03-19T12:10:26;18.90;91.70
20442;DHT22;10380;52.102;20.614;2023-03-19T12:19:06;19.30;90.70
20442;DHT22;10380;52.102;20.614;2023-03-19T12:27:37;19.30;90.10
20442;DHT22;10380;52.102;20.614;2023-03-19T12:35:29;18.80;90.30
20442;DHT22;10380;52.102;20.614;2023-03-19T12:41:22;19.10;90.40
20442;DHT22;10380;52.102;20.614;2023-03-19T12:44:17;19.20;90.40
20442;DHT22;10380;52.102;20.614;2023-03-19T12:46:57;19.20;90.00
20442;DHT22;10380;52.102;20.614;2023-03-19T12:51:59;19.30;90.10
20442;DHT22;10380;52.102;20.614;2023-03-19T12:54:38;19.30;89.30
20442;DHT22;10380;52.102;20.614;2023-03-19T12:57:49;19.20;89.30
20442;DHT22;10380;52.102;20.614;2023-03-19T13:03:14;19.80;89.40
20442;DHT22;10380;52.102;20.614;2023-03-19T13:08:32;20.70;87.20
20442;DHT22;10380;52.102;20.614;2023-03-19T13:11:04;21.00;86.10
20442;DHT22;10380;52.102;20.614;2023-03-19T13:16:32;21.70;85.90
20442;DHT22;10380;52.102;20.614;2023-03-19T13:21:53;22.10;82.00
20442;DHT22;10380;52.102;20.614;2023-03-19T13:26:53;22.00;81.90
20442;DHT22;10380;52.102;20.614;2023-03-19T13:29:24;21.90;81.30
20442;DHT22;10380;52.102;20.614;2023-03-19T13:31:52;21.50;80.60
20442;DHT22;10380;52.102;20.614;2023-03-19T13:34:27;20.90;81.60
20442;DHT22;10380;52.102;20.614;2023-03-19T13:37:11;20.40;82.40
20442;DHT22;10380;52.102;20.614;2023-03-19T13:39:40;20.00;82.90
20442;DHT22;10380;52.102;20.614;2023-03-19T13:47:48;19.10;83.30
20442;DHT22;10380;52.102;20.614;2023-03-19T13:50:21;19.10;84.00
20442;DHT22;10380;52.102;20.614;2023-03-19T13:52:51;19.00;83.80
20442;DHT22;10380;52.102;20.614;2023-03-19T13:58:13;18.70;83.80
20442;DHT22;10380;52.102;20.614;2023-03-19T14:01:08;18.60;84.10
20442;DHT22;10380;52.102;20.614;2023-03-19T14:03:37;18.60;84.70
20442;DHT22;10380;52.102;20.614;2023-03-19T14:08:55;18.90;84.80
20442;DHT22;10380;52.102;20.614;2023-03-19T14:11:35;19.10;84.00
20442;DHT22;10380;52.102;20.614;2023-03-19T14:14:05;19.20;83.40
20442;DHT22;10380;52.102;20.614;2023-03-19T14:16:43;19.30;82.90
20442;DHT22;10380;52.102;20.614;2023-03-19T14:19:17;19.20;82.20
20442;DHT22;10380;52.102;20.614;2023-03-19T14:22:31;19.10;82.60
20442;DHT22;10380;52.102;20.614;2023-03-19T14:25:15;19.00;82.70
20442;DHT22;10380;52.102;20.614;2023-03-19T14:27:48;18.80;83.30
20442;DHT22;10380;52.102;20.614;2023-03-19T14:33:01;18.50;83.90
20442;DHT22;10380;52.102;20.614;2023-03-19T14:35:36;18.30;84.10
20442;DHT22;10380;52.102;20.614;2023-03-19T14:38:20;18.20;84.50
20442;DHT22;10380;52.102;20.614;2023-03-19T14:40:55;18.10;84.60
20442;DHT22;10380;52.102;20.614;2023-03-19T14:54:32;18.00;86.40
20442;DHT22;10380;52.102;20.614;2023-03-19T14:59:42;17.80;86.10
20442;DHT22;10380;52.102;20.614;2023-03-19T15:02:38;17.70;86.90
20442;DHT22;10380;52.102;20.614;2023-03-19T15:05:20;17.50;87.20
20442;DHT22;10380;52.102;20.614;2023-03-19T15:07:49;17.40;87.40
20442;DHT22;10380;52.102;20.614;2023-03-19T15:10:23;17.20;87.80
20442;DHT22;10380;52.102;20.614;2023-03-19T15:13:11;17.10;88.40
20442;DHT22;10380;52.102;20.614;2023-03-19T15:18:28;16.90;88.80
20442;DHT22;10380;52.102;20.614;2023-03-19T15:20:56;16.80;88.90
20442;DHT22;10380;52.102;20.614;2023-03-19T15:23:27;16.70;89.50
20442;DHT22;10380;52.102;20.614;2023-03-19T15:25:56;16.70;90.00
20442;DHT22;10380;52.102;20.614;2023-03-19T15:28:30;16.60;90.10
20442;DHT22;10380;52.102;20.614;2023-03-19T15:31:01;16.60;90.20
20442;DHT22;10380;52.102;20.614;2023-03-19T15:33:49;16.60;90.30
20442;DHT22;10380;52.102;20.614;2023-03-19T15:36:32;16.60;90.50
20442;DHT22;10380;52.102;20.614;2023-03-19T15:39:06;16.60;90.70
20442;DHT22;10380;52.102;20.614;2023-03-19T15:41:38;16.60;90.50
20442;DHT22;10380;52.102;20.614;2023-03-19T15:44:15;16.60;90.50
20442;DHT22;10380;52.102;20.614;2023-03-19T15:46:46;16.50;90.50
20442;DHT22;10380;52.102;20.614;2023-03-19T15:49:19;16.50;90.60
20442;DHT22;10380;52.102;20.614;2023-03-19T15:51:48;16.50;90.70
20442;DHT22;10380;52.102;20.614;2023-03-19T15:54:18;16.40;90.60
20442;DHT22;10380;52.102;20.614;2023-03-19T15:56:48;16.40;90.60
20442;DHT22;10380;52.102;20.614;2023-03-19T15:59:18;16.30;90.70
20442;DHT22;10380;52.102;20.614;2023-03-19T16:01:49;16.20;90.70
20442;DHT22;10380;52.102;20.614;2023-03-19T16:04:20;16.10;90.90
20442;DHT22;10380;52.102;20.614;2023-03-19T16:06:49;16.10;91.00
20442;DHT22;10380;52.102;20.614;2023-03-19T16:11:59;15.90;91.40
20442;DHT22;10380;52.102;20.614;2023-03-19T16:17:11;15.70;91.30
20442;DHT22;10380;52.102;20.614;2023-03-19T16:20:01;15.60;91.30
20442;DHT22;10380;52.102;20.614;2023-03-19T16:22:29;15.50;91.60
20442;DHT22;10380;52.102;20.614;2023-03-19T16:24:58;15.30;91.80
20442;DHT22;10380;52.102;20.614;2023-03-19T16:27:36;15.20;92.00
20442;DHT22;10380;52.102;20.614;2023-03-19T16:30:16;15.00;92.20
20442;DHT22;10380;52.102;20.614;2023-03-19T16:32:55;14.90;92.50
20442;DHT22;10380;52.102;20.614;2023-03-19T16:35:22;14.70;92.60
20442;DHT22;10380;52.102;20.614;2023-03-19T16:37:52;14.60;92.80
20442;DHT22;10380;52.102;20.614;2023-03-19T16:42:51;14.40;93.30
20442;DHT22;10380;52.102;20.614;2023-03-19T16:47:50;14.10;93.80
20442;DHT22;10380;52.102;20.614;2023-03-19T16:50:20;14.10;94.20
20442;DHT22;10380;52.102;20.614;2023-03-19T16:52:49;13.90;94.60
20442;DHT22;10380;52.102;20.614;2023-03-19T16:55:26;13.80;95.00
20442;DHT22;10380;52.102;20.614;2023-03-19T16:58:03;13.70;95.30
20442;DHT22;10380;52.102;20.614;2023-03-19T17:00:33;13.60;95.80
20442;DHT22;10380;52.102;20.614;2023-03-19T17:03:00;13.50;96.10
20442;DHT22;10380;52.102;20.614;2023-03-19T17:05:28;13.50;96.30
20442;DHT22;10380;52.102;20.614;2023-03-19T17:08:14;13.30;96.60
20442;DHT22;10380;52.102;20.614;2023-03-19T17:10:46;13.20;97.10
20442;DHT22;10380;52.102;20.614;2023-03-19T17:13:24;13.10;97.60
20442;DHT22;10380;52.102;20.614;2023-03-19T17:16:06;13.00;97.50
20442;DHT22;10380;52.102;20.614;2023-03-19T17:18:37;12.90;97.80
20442;DHT22;10380;52.102;20.614;2023-03-19T17:21:14;12.80;97.90
20442;DHT22;10380;52.102;20.614;2023-03-19T17:23:42;12.70;98.10
20442;DHT22;10380;52.102;20.614;2023-03-19T17:26:16;12.60;98.70
20442;DHT22;10380;52.102;20.614;2023-03-19T17:28:45;12.60;98.70
20442;DHT22;10380;52.102;20.614;2023-03-19T17:33:48;12.50;99.10
20442;DHT22;10380;52.102;20.614;2023-03-19T17:36:16;12.40;99.10
20442;DHT22;10380;52.102;20.614;2023-03-19T17:38:43;12.40;99.40
20442;DHT22;10380;52.102;20.614;2023-03-19T17:41:16;12.30;99.70
20442;DHT22;10380;52.102;20.614;2023-03-19T17:43:46;12.30;99.90
20442;DHT22;10380;52.102;20.614;2023-03-19T17:46:24;12.20;99.90
20442;DHT22;10380;52.102;20.614;2023-03-19T17:48:52;12.20;99.90
20442;DHT22;10380;52.102;20.614;2023-03-19T17:51:25;12.10;99.90
20442;DHT22;10380;52.102;20.614;2023-03-19T17:53:53;12.00;99.90
20442;DHT22;10380;52.102;20.614;2023-03-19T17:56:24;12.00;99.90
20442;DHT22;10380;52.102;20.614;2023-03-19T17:58:52;11.90;99.90